createdAt,value
2023-03-03T00:00:25.863Z,24.98
2023-03-03T00:03:19.471Z,27.35
2023-03-03T00:06:06.111Z,25.20
2023-03-03T00:08:52.192Z,29.83
2023-03-03T00:11:38.222Z,29.75
2023-03-03T00:14:32.157Z,31.00
2023-03-03T00:17:24.883Z,24.63
2023-03-03T00:20:35.886Z,26.23
2023-03-03T00:23:43.218Z,26.40
2023-03-03T00:26:36.510Z,28.05
2023-03-03T00:29:35.997Z,28.95
2023-03-03T00:32:23.870Z,26.67
2023-03-03T00:35:27.664Z,25.50
2023-03-03T00:38:18.525Z,30.50
2023-03-03T00:41:11.456Z,31.67
2023-03-03T00:43:58.574Z,30.85
2023-03-03T00:46:44.744Z,31.58
2023-03-03T00:49:30.742Z,30.05
2023-03-03T00:52:18.510Z,27.75
2023-03-03T00:55:06.258Z,31.85
2023-03-03T00:57:52.122Z,28.70
2023-03-03T01:00:42.821Z,28.67
2023-03-03T01:03:32.041Z,23.38
2023-03-03T01:06:17.866Z,23.52
2023-03-03T01:09:04.053Z,24.58
2023-03-03T01:11:50.799Z,25.98
2023-03-03T01:14:36.971Z,31.83
2023-03-03T01:17:23.104Z,26.13
2023-03-03T01:20:11.428Z,25.23
2023-03-03T01:22:57.612Z,25.67
2023-03-03T01:25:43.688Z,25.65
2023-03-03T01:28:29.724Z,26.33
2023-03-03T01:31:15.723Z,25.70
2023-03-03T01:34:01.815Z,23.10
2023-03-03T01:36:47.689Z,24.80
2023-03-03T01:39:33.758Z,30.33
2023-03-03T01:42:20.268Z,26.75
2023-03-03T01:45:12.744Z,25.02
2023-03-03T01:48:01.594Z,27.42
2023-03-03T01:50:56.006Z,31.65
2023-03-03T01:53:48.016Z,29.83
2023-03-03T01:59:25.131Z,22.75
2023-03-03T02:02:11.959Z,22.58
2023-03-03T02:04:58.920Z,25.30
2023-03-03T02:07:45.822Z,28.00
2023-03-03T02:10:31.987Z,20.33
2023-03-03T02:13:17.967Z,29.85
2023-03-03T02:16:04.658Z,25.08
2023-03-03T02:21:37.228Z,20.70
2023-03-03T02:24:39.605Z,21.05
2023-03-03T02:27:28.043Z,24.38
2023-03-03T02:30:18.301Z,27.42
2023-03-03T02:33:05.108Z,22.95
2023-03-03T02:35:51.455Z,27.13
2023-03-03T02:38:44.659Z,24.63
2023-03-03T02:41:44.933Z,23.88
2023-03-03T02:44:32.817Z,21.83
2023-03-03T02:47:19.487Z,25.55
2023-03-03T02:50:06.034Z,21.25
2023-03-03T02:52:51.792Z,23.63
2023-03-03T02:55:38.676Z,18.73
2023-03-03T02:58:25.320Z,23.45
2023-03-03T03:01:11.742Z,21.95
2023-03-03T03:03:58.968Z,25.00
2023-03-03T03:06:45.541Z,21.73
2023-03-03T03:09:33.066Z,26.30
2023-03-03T03:12:21.185Z,24.60
2023-03-03T03:15:10.630Z,24.65
2023-03-03T03:17:56.705Z,26.23
2023-03-03T03:20:43.374Z,24.05
2023-03-03T03:23:29.838Z,25.98
2023-03-03T03:26:17.018Z,25.40
2023-03-03T03:29:03.462Z,27.95
2023-03-03T03:31:49.888Z,21.90
2023-03-03T03:34:36.056Z,28.25
2023-03-03T03:37:23.692Z,23.08
2023-03-03T03:40:11.415Z,25.00
2023-03-03T03:42:57.781Z,26.55
2023-03-03T03:45:44.125Z,24.60
2023-03-03T03:48:31.382Z,28.75
2023-03-03T03:51:19.213Z,25.85
2023-03-03T03:54:05.618Z,23.73
2023-03-03T03:56:54.755Z,28.77
2023-03-03T03:59:41.994Z,28.10
2023-03-03T04:02:28.532Z,26.73
2023-03-03T04:05:15.578Z,24.52
2023-03-03T04:08:02.383Z,22.95
2023-03-03T04:10:48.650Z,23.98
2023-03-03T04:13:35.522Z,23.80
2023-03-03T04:16:25.070Z,25.98
2023-03-03T04:19:11.304Z,28.52
2023-03-03T04:22:00.340Z,28.63
2023-03-03T04:24:48.637Z,27.48
2023-03-03T04:27:37.232Z,23.98
2023-03-03T04:30:23.955Z,28.00
2023-03-03T04:33:13.774Z,28.90
2023-03-03T04:36:01.306Z,25.38
2023-03-03T04:38:47.395Z,29.20
2023-03-03T04:41:33.640Z,30.33
2023-03-03T04:44:20.041Z,26.13
2023-03-03T04:47:07.470Z,29.05
2023-03-03T04:49:54.147Z,29.35
2023-03-03T04:52:40.857Z,26.40
2023-03-03T04:55:28.123Z,27.30
2023-03-03T04:58:16.012Z,25.30
2023-03-03T05:01:03.195Z,29.50
2023-03-03T05:03:51.314Z,30.17
2023-03-03T05:06:38.055Z,29.83
2023-03-03T05:09:24.431Z,27.98
2023-03-03T05:12:10.609Z,29.63
2023-03-03T05:14:56.489Z,27.33
2023-03-03T05:17:42.602Z,28.67
2023-03-03T05:20:28.702Z,31.92
2023-03-03T05:23:15.166Z,29.25
2023-03-03T05:26:01.231Z,26.98
2023-03-03T05:28:47.112Z,29.95
2023-03-03T05:31:33.148Z,22.60
2023-03-03T05:34:19.049Z,30.33
2023-03-03T05:37:06.696Z,29.88
2023-03-03T05:39:52.744Z,33.05
2023-03-03T05:42:38.649Z,25.77
2023-03-03T05:45:25.075Z,28.90
2023-03-03T05:48:11.229Z,27.75
2023-03-03T05:51:00.834Z,25.23
2023-03-03T05:53:46.887Z,28.92
2023-03-03T05:56:32.964Z,32.42
2023-03-03T05:59:19.705Z,23.42
2023-03-03T06:04:52.211Z,25.08
2023-03-03T06:07:38.648Z,28.80
2023-03-03T06:10:24.839Z,26.50
2023-03-03T06:13:15.494Z,29.23
2023-03-03T06:16:02.398Z,30.20
2023-03-03T06:18:48.629Z,30.67
2023-03-03T06:21:34.603Z,30.92
2023-03-03T06:24:20.648Z,31.17
2023-03-03T06:27:06.554Z,28.48
2023-03-03T06:29:53.320Z,27.00
2023-03-03T06:32:39.462Z,29.17
2023-03-03T06:35:25.747Z,31.08
2023-03-03T06:38:12.073Z,29.73
2023-03-03T06:40:58.640Z,31.27
2023-03-03T06:43:45.044Z,27.45
2023-03-03T06:46:31.394Z,32.85
2023-03-03T06:49:17.779Z,33.88
2023-03-03T06:52:14.285Z,30.25
2023-03-03T06:55:10.104Z,32.30
2023-03-03T06:57:56.216Z,30.48
2023-03-03T07:00:58.389Z,28.33
2023-03-03T07:03:45.599Z,32.60
2023-03-03T07:06:32.633Z,33.20
2023-03-03T07:09:28.155Z,30.30
2023-03-03T07:12:22.219Z,30.00
2023-03-03T07:15:22.180Z,29.35
2023-03-03T07:18:38.018Z,31.77
2023-03-03T07:21:31.764Z,29.83
2023-03-03T07:24:26.342Z,28.88
2023-03-03T07:27:31.685Z,31.17
2023-03-03T07:30:36.152Z,36.38
2023-03-03T07:33:45.632Z,29.90
2023-03-03T07:36:36.171Z,26.92
2023-03-03T07:39:32.225Z,34.95
2023-03-03T07:42:28.406Z,34.58
2023-03-03T07:45:32.494Z,33.97
2023-03-03T07:48:45.278Z,33.97
2023-03-03T07:51:42.155Z,26.80
2023-03-03T07:54:40.476Z,33.30
2023-03-03T07:57:37.971Z,33.28
2023-03-03T08:00:24.594Z,27.70
2023-03-03T08:03:20.756Z,28.02
2023-03-03T08:06:35.685Z,32.25
2023-03-03T08:09:31.257Z,31.92
2023-03-03T08:12:42.830Z,28.75
2023-03-03T08:15:33.832Z,32.60
2023-03-03T08:18:25.046Z,31.25
2023-03-03T08:21:19.078Z,36.92
2023-03-03T08:24:05.340Z,35.05
2023-03-03T08:26:51.425Z,33.67
2023-03-03T08:29:37.670Z,50.85
2023-03-03T08:32:23.692Z,34.03
2023-03-03T08:35:10.213Z,29.40
2023-03-03T08:37:56.316Z,31.13
2023-03-03T08:40:42.951Z,32.80
2023-03-03T08:43:29.693Z,34.75
2023-03-03T08:46:16.587Z,33.95
2023-03-03T08:49:02.915Z,36.53
2023-03-03T08:51:49.375Z,31.08
2023-03-03T08:54:35.275Z,31.48
2023-03-03T08:57:21.195Z,31.30
2023-03-03T09:00:13.082Z,31.13
2023-03-03T09:02:59.195Z,34.33
2023-03-03T09:05:45.752Z,32.95
2023-03-03T09:08:32.006Z,31.92
2023-03-03T09:11:24.810Z,37.75
2023-03-03T09:14:13.511Z,30.15
2023-03-03T09:16:59.867Z,29.02
2023-03-03T09:19:46.409Z,34.78
2023-03-03T09:22:36.252Z,30.48
2023-03-03T09:25:33.405Z,38.20
2023-03-03T09:28:31.605Z,32.60
2023-03-03T09:31:27.460Z,34.58
2023-03-03T09:34:20.803Z,31.50
2023-03-03T09:37:22.859Z,35.55
2023-03-03T09:40:35.196Z,33.95
2023-03-03T09:43:37.618Z,29.95
2023-03-03T09:46:30.854Z,29.13
2023-03-03T09:49:33.990Z,30.75
2023-03-03T09:52:35.035Z,30.85
2023-03-03T09:55:42.968Z,33.47
2023-03-03T09:58:45.800Z,27.13
2023-03-03T10:01:59.898Z,32.45
2023-03-03T10:05:00.613Z,34.78
2023-03-03T10:07:52.726Z,32.75
2023-03-03T10:11:05.100Z,27.52
2023-03-03T10:14:11.671Z,32.85
2023-03-03T10:17:18.888Z,31.15
2023-03-03T10:20:49.700Z,34.65
2023-03-03T10:23:39.333Z,34.97
2023-03-03T10:27:09.820Z,29.67
2023-03-03T10:30:11.339Z,33.47
2023-03-03T10:33:23.098Z,32.10
2023-03-03T10:36:21.570Z,37.30
2023-03-03T10:42:12.256Z,30.25
2023-03-03T10:45:35.164Z,31.02
2023-03-03T10:48:49.512Z,30.80
2023-03-03T10:51:57.869Z,33.28
2023-03-03T10:54:59.859Z,33.25
2023-03-03T10:57:48.744Z,33.65
2023-03-03T11:01:14.858Z,29.48
2023-03-03T11:04:41.031Z,33.45
2023-03-03T11:07:42.934Z,33.53
2023-03-03T11:10:48.256Z,29.17
2023-03-03T11:13:52.064Z,29.83
2023-03-03T11:17:17.318Z,32.83
2023-03-03T11:20:43.034Z,33.00
2023-03-03T11:24:13.360Z,31.98
2023-03-03T11:27:19.707Z,30.95
2023-03-03T11:30:41.112Z,30.70
2023-03-03T11:33:30.505Z,36.50
2023-03-03T11:36:42.199Z,35.03
2023-03-03T11:39:28.450Z,33.08
2023-03-03T11:42:35.130Z,32.72
2023-03-03T11:45:29.587Z,32.45
2023-03-03T11:48:18.632Z,36.55
2023-03-03T11:51:31.280Z,32.65
2023-03-03T11:54:29.363Z,31.90
2023-03-03T11:57:44.911Z,35.97
2023-03-03T12:00:40.118Z,33.72
2023-03-03T12:03:51.085Z,33.85
2023-03-03T12:07:12.991Z,33.22
2023-03-03T12:10:08.696Z,32.03
2023-03-03T12:13:32.260Z,36.95
2023-03-03T12:16:18.425Z,31.75
2023-03-03T12:19:19.944Z,27.83
2023-03-03T12:22:29.636Z,31.75
2023-03-03T12:25:54.263Z,28.88
2023-03-03T12:28:59.460Z,34.10
2023-03-03T12:32:07.737Z,32.28
2023-03-03T12:35:15.851Z,32.08
2023-03-03T12:38:18.017Z,31.58
2023-03-03T12:41:20.432Z,29.52
2023-03-03T12:44:22.857Z,30.58
2023-03-03T12:47:35.684Z,31.40
2023-03-03T12:50:43.152Z,32.80
2023-03-03T12:53:38.108Z,29.83
2023-03-03T12:56:35.165Z,27.83
2023-03-03T12:59:21.360Z,31.98
2023-03-03T13:02:25.753Z,30.00
2023-03-03T13:05:23.359Z,30.77
2023-03-03T13:08:21.539Z,28.65
2023-03-03T13:11:38.035Z,30.20
2023-03-03T13:14:49.526Z,27.88
2023-03-03T13:17:49.477Z,31.77
2023-03-03T13:20:51.797Z,27.38
2023-03-03T13:23:56.209Z,30.40
2023-03-03T13:27:04.892Z,32.53
2023-03-03T13:30:09.034Z,31.70
2023-03-03T13:33:02.296Z,29.38
2023-03-03T13:36:10.369Z,29.23
2023-03-03T13:39:02.762Z,31.50
2023-03-03T13:41:57.139Z,30.90
2023-03-03T13:44:47.595Z,30.50
2023-03-03T13:48:14.100Z,30.45
2023-03-03T13:51:04.821Z,30.15
2023-03-03T13:54:07.992Z,31.60
2023-03-03T13:57:09.081Z,30.88
2023-03-03T13:59:58.210Z,28.77
2023-03-03T14:03:04.497Z,32.47
2023-03-03T14:05:52.586Z,32.13
2023-03-03T14:08:50.430Z,30.98
2023-03-03T14:12:01.616Z,32.33
2023-03-03T14:14:52.570Z,34.67
2023-03-03T14:18:11.660Z,30.52
2023-03-03T14:21:06.388Z,31.40
2023-03-03T14:24:31.163Z,30.17
2023-03-03T14:27:25.128Z,31.25
2023-03-03T14:30:33.161Z,30.65
2023-03-03T14:33:22.948Z,39.03
2023-03-03T14:36:13.222Z,32.75
2023-03-03T14:38:59.700Z,32.42
2023-03-03T14:41:46.125Z,29.20
2023-03-03T14:44:38.878Z,31.67
2023-03-03T14:47:27.825Z,32.35
2023-03-03T14:50:38.503Z,30.52
2023-03-03T14:53:35.818Z,28.25
2023-03-03T14:56:23.983Z,30.65
2023-03-03T14:59:30.771Z,30.42
2023-03-03T15:02:16.702Z,31.50
2023-03-03T15:05:23.901Z,28.77
2023-03-03T15:08:11.353Z,32.20
2023-03-03T15:11:32.359Z,30.48
2023-03-03T15:14:29.709Z,29.70
2023-03-03T15:17:29.469Z,30.77
2023-03-03T15:20:43.120Z,30.55
2023-03-03T15:23:48.175Z,31.10
2023-03-03T15:26:43.410Z,30.88
2023-03-03T15:29:52.840Z,32.05
2023-03-03T15:33:08.610Z,28.30
2023-03-03T15:36:04.163Z,29.35
2023-03-03T15:38:59.476Z,31.00
2023-03-03T15:42:11.884Z,29.27
2023-03-03T15:45:28.396Z,29.15
2023-03-03T15:48:28.120Z,33.25
2023-03-03T15:51:20.617Z,32.88
2023-03-03T15:54:33.386Z,28.45
2023-03-03T15:57:38.257Z,28.80
2023-03-03T16:01:02.249Z,29.88
2023-03-03T16:04:20.170Z,28.85
2023-03-03T16:07:25.951Z,35.05
2023-03-03T16:10:45.420Z,30.15
2023-03-03T16:13:46.353Z,31.58
2023-03-03T16:16:51.108Z,30.23
2023-03-03T16:19:49.233Z,31.20
2023-03-03T16:22:35.344Z,30.63
2023-03-03T16:25:55.263Z,27.27
2023-03-03T16:29:16.310Z,30.13
2023-03-03T16:32:18.182Z,36.45
2023-03-03T16:35:17.767Z,30.00
2023-03-03T16:38:18.444Z,31.23
2023-03-03T16:41:29.362Z,35.22
2023-03-03T16:44:49.233Z,29.60
2023-03-03T16:47:47.152Z,34.42
2023-03-03T16:51:00.262Z,33.25
2023-03-03T16:54:00.664Z,35.13
2023-03-03T16:56:59.245Z,32.53
2023-03-03T17:02:54.604Z,30.35
2023-03-03T17:05:48.032Z,35.05
2023-03-03T17:08:39.768Z,34.17
2023-03-03T17:12:02.668Z,32.33
2023-03-03T17:15:04.375Z,37.22
2023-03-03T17:18:11.067Z,35.97
2023-03-03T17:21:01.898Z,35.75
2023-03-03T17:23:53.866Z,44.10
2023-03-03T17:26:57.195Z,34.72
2023-03-03T17:29:50.835Z,33.08
2023-03-03T17:32:45.172Z,34.45
2023-03-03T17:35:59.134Z,32.17
2023-03-03T17:39:10.250Z,34.88
2023-03-03T17:42:19.973Z,33.92
2023-03-03T17:45:17.676Z,34.38
2023-03-03T17:48:03.781Z,33.70
2023-03-03T17:51:04.830Z,33.00
2023-03-03T17:54:17.632Z,31.30
2023-03-03T17:57:14.079Z,31.15
2023-03-03T18:00:42.418Z,33.00
2023-03-03T18:06:55.939Z,32.88
2023-03-03T18:10:06.612Z,32.80
2023-03-03T18:13:02.909Z,32.63
2023-03-03T18:16:10.681Z,31.80
2023-03-03T18:19:12.799Z,33.78
2023-03-03T18:22:07.526Z,33.40
2023-03-03T18:25:00.555Z,33.00
2023-03-03T18:28:07.880Z,30.45
2023-03-03T18:31:00.813Z,33.25
2023-03-03T18:34:17.667Z,37.72
2023-03-03T18:37:38.200Z,36.42
2023-03-03T18:40:36.039Z,33.75
2023-03-03T18:43:43.933Z,37.78
2023-03-03T18:46:36.234Z,36.08
2023-03-03T18:49:48.482Z,38.53
2023-03-03T18:52:36.411Z,39.78
2023-03-03T18:55:26.247Z,36.35
2023-03-03T18:58:15.511Z,38.05
2023-03-03T19:01:33.469Z,42.35
2023-03-03T19:04:22.494Z,36.20
2023-03-03T19:07:26.810Z,36.83
2023-03-03T19:10:22.207Z,38.38
2023-03-03T19:13:46.823Z,38.60
2023-03-03T19:16:36.850Z,35.25
2023-03-03T19:19:28.871Z,37.22
2023-03-03T19:22:22.764Z,41.55
2023-03-03T19:25:09.018Z,36.33
2023-03-03T19:28:06.785Z,40.63
2023-03-03T19:31:02.025Z,39.78
2023-03-03T19:33:59.421Z,39.03
2023-03-03T19:37:16.732Z,37.33
2023-03-03T19:40:23.192Z,36.17
2023-03-03T19:43:23.816Z,35.83
2023-03-03T19:46:38.183Z,37.33
2023-03-03T19:49:56.575Z,33.72
2023-03-03T19:52:56.603Z,36.40
2023-03-03T19:56:13.890Z,37.33
2023-03-03T19:59:18.137Z,33.42
2023-03-03T20:02:22.964Z,31.63
2023-03-03T20:05:48.610Z,30.67
2023-03-03T20:08:43.845Z,37.00
2023-03-03T20:11:51.032Z,34.78
2023-03-03T20:14:46.750Z,37.88
2023-03-03T20:17:38.777Z,35.03
2023-03-03T20:20:42.931Z,40.30
2023-03-03T20:23:29.161Z,40.53
2023-03-03T20:26:59.796Z,40.20
2023-03-03T20:30:05.854Z,37.05
2023-03-03T20:33:02.680Z,39.40
2023-03-03T20:36:11.108Z,39.53
2023-03-03T20:39:07.166Z,34.33
2023-03-03T20:42:10.293Z,35.00
2023-03-03T20:45:02.241Z,40.55
2023-03-03T20:47:48.353Z,36.38
2023-03-03T20:51:01.742Z,36.35
2023-03-03T20:54:10.048Z,38.40
2023-03-03T20:57:15.816Z,32.90
2023-03-03T21:00:49.363Z,37.60
2023-03-03T21:03:41.977Z,37.95
2023-03-03T21:09:36.220Z,33.50
2023-03-03T21:12:30.947Z,32.13
2023-03-03T21:15:29.804Z,37.65
2023-03-03T21:18:25.121Z,35.38
2023-03-03T21:21:11.427Z,33.60
2023-03-03T21:23:59.090Z,36.88
2023-03-03T21:26:48.276Z,36.92
2023-03-03T21:29:35.897Z,39.15
2023-03-03T21:32:40.535Z,38.97
2023-03-03T21:35:26.755Z,35.08
2023-03-03T21:38:32.402Z,41.72
2023-03-03T21:41:19.510Z,30.50
2023-03-03T21:44:34.672Z,36.28
2023-03-03T21:47:23.635Z,36.92
2023-03-03T21:50:11.467Z,37.78
2023-03-03T21:52:57.775Z,38.05
2023-03-03T21:55:48.729Z,38.33
2023-03-03T21:58:35.056Z,35.50
2023-03-03T22:01:22.092Z,38.38
2023-03-03T22:04:08.766Z,31.85
2023-03-03T22:06:54.665Z,34.88
2023-03-03T22:09:40.722Z,35.88
2023-03-03T22:12:26.661Z,31.90
2023-03-03T22:15:13.711Z,31.25
2023-03-03T22:18:00.707Z,37.42
2023-03-03T22:23:33.520Z,31.50
2023-03-03T22:26:21.664Z,32.15
2023-03-03T22:29:07.737Z,32.30
2023-03-03T22:31:53.905Z,33.92
2023-03-03T22:34:40.473Z,36.50
2023-03-03T22:37:26.371Z,38.15
2023-03-03T22:40:12.980Z,32.35
2023-03-03T22:42:59.803Z,34.00
2023-03-03T22:45:45.751Z,36.50
2023-03-03T22:48:32.101Z,34.47
2023-03-03T22:51:21.978Z,35.67
2023-03-03T22:54:07.932Z,33.70
2023-03-03T22:56:53.828Z,35.38
2023-03-03T22:59:39.676Z,37.60
2023-03-03T23:02:25.794Z,36.88
2023-03-03T23:05:12.083Z,36.78
2023-03-03T23:07:58.813Z,36.22
2023-03-03T23:10:45.222Z,30.00
2023-03-03T23:13:32.399Z,37.75
2023-03-03T23:16:18.550Z,33.45
2023-03-03T23:19:04.976Z,33.35
2023-03-03T23:21:50.993Z,34.35
2023-03-03T23:24:37.007Z,35.95
2023-03-03T23:27:22.992Z,35.42
2023-03-03T23:30:10.473Z,37.42
2023-03-03T23:32:56.866Z,35.20
2023-03-03T23:35:45.126Z,38.03
2023-03-03T23:38:31.071Z,39.63
2023-03-03T23:41:16.920Z,38.80
2023-03-03T23:44:03.683Z,39.28
2023-03-03T23:46:49.811Z,38.90
2023-03-03T23:49:36.292Z,34.10
2023-03-03T23:52:22.177Z,33.67
2023-03-03T23:55:08.894Z,39.58
2023-03-03T23:57:55.179Z,33.10
